createdAt,value
2018-12-04T00:00:16.928Z,0.00
2018-12-04T00:01:16.924Z,0.00
2018-12-04T00:02:16.916Z,0.00
2018-12-04T00:03:16.907Z,0.00
2018-12-04T00:04:16.900Z,0.00
2018-12-04T00:05:16.938Z,0.00
2018-12-04T00:06:16.880Z,0.00
2018-12-04T00:07:16.872Z,0.00
2018-12-04T00:08:16.864Z,0.00
2018-12-04T00:09:16.861Z,0.00
2018-12-04T00:10:16.857Z,0.00
2018-12-04T00:11:16.845Z,0.00
2018-12-04T00:12:16.836Z,0.00
2018-12-04T00:13:16.824Z,0.00
2018-12-04T00:14:16.816Z,0.00
2018-12-04T00:15:16.812Z,0.00
2018-12-04T00:16:16.805Z,0.00
2018-12-04T00:17:16.792Z,0.00
2018-12-04T00:18:16.784Z,0.00
2018-12-04T00:19:16.778Z,0.00
2018-12-04T00:20:16.767Z,0.00
2018-12-04T00:21:16.765Z,0.00
2018-12-04T00:22:16.759Z,0.00
2018-12-04T00:23:16.747Z,0.00
2018-12-04T00:24:16.739Z,0.00
2018-12-04T00:25:16.727Z,0.00
2018-12-04T00:26:16.719Z,0.00
2018-12-04T00:27:16.711Z,0.00
2018-12-04T00:28:16.706Z,0.00
2018-12-04T00:29:16.699Z,0.00
2018-12-04T00:30:16.691Z,0.00
2018-12-04T00:31:16.677Z,0.00
2018-12-04T00:32:16.670Z,0.00
2018-12-04T00:33:16.667Z,0.00
2018-12-04T00:34:16.659Z,0.00
2018-12-04T00:35:16.650Z,0.00
2018-12-04T00:36:16.642Z,0.00
2018-12-04T00:37:16.629Z,0.00
2018-12-04T00:38:16.620Z,0.00
2018-12-04T00:39:16.612Z,0.00
2018-12-04T00:40:16.605Z,0.00
2018-12-04T00:41:16.602Z,0.00
2018-12-04T00:42:16.593Z,0.00
2018-12-04T00:43:16.585Z,0.00
2018-12-04T00:44:16.576Z,0.00
2018-12-04T00:45:16.564Z,0.00
2018-12-04T00:46:16.556Z,0.00
2018-12-04T00:47:16.551Z,0.00
2018-12-04T00:48:16.543Z,0.00
2018-12-04T00:49:16.532Z,0.00
2018-12-04T00:50:16.523Z,0.00
2018-12-04T00:51:16.515Z,0.00
2018-12-04T00:52:16.508Z,0.00
2018-12-04T00:53:16.503Z,0.00
2018-12-04T00:54:16.497Z,0.00
2018-12-04T00:55:16.487Z,0.00
2018-12-04T00:56:16.479Z,0.00
2018-12-04T00:57:16.468Z,0.00
2018-12-04T00:58:16.459Z,0.00
2018-12-04T00:59:16.450Z,0.00
2018-12-04T01:00:16.443Z,0.00
2018-12-04T01:01:16.442Z,0.00
2018-12-04T01:02:16.430Z,0.00
2018-12-04T01:03:16.418Z,0.00
2018-12-04T01:04:16.410Z,0.00
2018-12-04T01:05:16.406Z,0.00
2018-12-04T01:06:16.401Z,0.00
2018-12-04T01:07:16.391Z,0.00
2018-12-04T01:08:16.383Z,0.00
2018-12-04T01:09:16.370Z,0.00
2018-12-04T01:10:16.362Z,0.00
2018-12-04T01:11:16.353Z,0.00
2018-12-04T01:12:16.345Z,0.00
2018-12-04T01:13:16.342Z,0.00
2018-12-04T01:14:16.336Z,0.00
2018-12-04T01:15:16.324Z,0.00
2018-12-04T01:16:16.318Z,0.00
2018-12-04T01:17:16.305Z,0.00
2018-12-04T01:18:16.298Z,0.00
2018-12-04T01:19:16.294Z,0.00
2018-12-04T01:20:16.286Z,0.00
2018-12-04T01:21:16.272Z,0.00
2018-12-04T01:22:16.269Z,0.00
2018-12-04T01:23:16.256Z,0.00
2018-12-04T01:24:16.250Z,0.00
2018-12-04T01:25:16.247Z,0.00
2018-12-04T01:26:16.238Z,0.00
2018-12-04T01:27:16.232Z,0.00
2018-12-04T01:28:16.221Z,0.00
2018-12-04T01:29:16.209Z,0.00
2018-12-04T01:30:16.200Z,0.00
2018-12-04T01:31:16.191Z,0.00
2018-12-04T01:32:16.184Z,0.00
2018-12-04T01:33:16.180Z,0.00
2018-12-04T01:34:16.173Z,0.00
2018-12-04T01:35:16.159Z,0.00
2018-12-04T01:36:16.152Z,0.00
2018-12-04T01:37:16.147Z,0.00
2018-12-04T01:38:16.143Z,0.00
2018-12-04T01:39:16.131Z,0.00
2018-12-04T01:40:16.127Z,0.00
2018-12-04T01:41:16.112Z,0.00
2018-12-04T01:42:16.105Z,0.00
2018-12-04T01:43:16.096Z,0.00
2018-12-04T01:44:16.088Z,0.00
2018-12-04T01:45:16.083Z,0.00
2018-12-04T01:46:16.076Z,0.00
2018-12-04T01:47:16.072Z,0.00
2018-12-04T01:48:16.059Z,0.00
2018-12-04T01:49:16.048Z,0.00
2018-12-04T01:50:16.039Z,0.00
2018-12-04T01:51:16.035Z,0.00
2018-12-04T01:52:16.030Z,0.00
2018-12-04T01:53:16.014Z,0.00
2018-12-04T01:54:16.006Z,0.00
2018-12-04T01:55:15.998Z,0.00
2018-12-04T01:56:15.990Z,0.00
2018-12-04T01:57:15.992Z,0.00
2018-12-04T01:58:15.980Z,0.00
2018-12-04T01:59:15.970Z,0.00
2018-12-04T02:00:15.962Z,0.00
2018-12-04T02:01:15.952Z,0.00
2018-12-04T02:02:15.942Z,0.00
2018-12-04T02:03:15.935Z,0.00
2018-12-04T02:04:15.926Z,0.00
2018-12-04T02:05:15.921Z,0.00
2018-12-04T02:06:15.917Z,0.00
2018-12-04T02:07:15.901Z,0.00
2018-12-04T02:08:15.893Z,0.00
2018-12-04T02:09:15.891Z,0.00
2018-12-04T02:10:15.883Z,0.00
2018-12-04T02:11:15.872Z,0.00
2018-12-04T02:12:15.865Z,0.00
2018-12-04T02:13:15.854Z,0.00
2018-12-04T02:14:15.845Z,0.00
2018-12-04T02:15:15.836Z,0.00
2018-12-04T02:16:15.827Z,0.00
2018-12-04T02:17:15.825Z,0.00
2018-12-04T02:18:15.816Z,0.00
2018-12-04T02:19:15.808Z,0.00
2018-12-04T02:20:15.801Z,0.00
2018-12-04T02:21:15.792Z,0.00
2018-12-04T02:22:15.779Z,0.00
2018-12-04T02:23:15.776Z,0.00
2018-12-04T02:24:15.768Z,0.00
2018-12-04T02:25:15.754Z,0.00
2018-12-04T02:26:15.749Z,0.00
2018-12-04T02:27:15.738Z,0.00
2018-12-04T02:28:15.729Z,0.00
2018-12-04T02:29:15.726Z,0.00
2018-12-04T02:30:15.718Z,0.00
2018-12-04T02:31:15.711Z,0.00
2018-12-04T02:32:15.701Z,0.00
2018-12-04T02:33:15.689Z,0.00
2018-12-04T02:34:15.682Z,0.00
2018-12-04T02:35:15.672Z,0.00
2018-12-04T02:36:15.665Z,0.00
2018-12-04T02:37:15.662Z,0.00
2018-12-04T02:38:15.652Z,0.00
2018-12-04T02:39:15.640Z,0.00
2018-12-04T02:40:15.636Z,0.00
2018-12-04T02:41:15.637Z,0.00
2018-12-04T02:42:15.622Z,0.00
2018-12-04T02:43:15.610Z,0.00
2018-12-04T02:44:15.603Z,0.00
2018-12-04T02:45:15.591Z,0.00
2018-12-04T02:46:15.607Z,0.00
2018-12-04T02:47:15.576Z,0.00
2018-12-04T02:48:15.568Z,0.00
2018-12-04T02:49:15.563Z,0.00
2018-12-04T02:50:15.555Z,0.00
2018-12-04T02:51:15.548Z,0.00
2018-12-04T02:52:15.540Z,0.00
2018-12-04T02:53:15.526Z,0.00
2018-12-04T02:54:15.518Z,0.00
2018-12-04T02:55:15.515Z,0.00
2018-12-04T02:56:15.506Z,0.00
2018-12-04T02:57:15.494Z,0.00
2018-12-04T02:58:15.487Z,0.00
2018-12-04T02:59:15.479Z,0.00
2018-12-04T03:00:15.469Z,0.00
2018-12-04T03:01:15.467Z,0.00
2018-12-04T03:02:15.457Z,0.00
2018-12-04T03:03:15.448Z,0.00
2018-12-04T03:04:15.440Z,0.00
2018-12-04T03:05:15.437Z,0.00
2018-12-04T03:06:15.424Z,0.00
2018-12-04T03:07:15.413Z,0.00
2018-12-04T03:08:15.405Z,0.00
2018-12-04T03:09:15.403Z,0.00
2018-12-04T03:10:15.393Z,0.00
2018-12-04T03:11:15.378Z,0.00
2018-12-04T03:12:15.375Z,0.00
2018-12-04T03:13:15.367Z,0.00
2018-12-04T03:14:15.360Z,0.00
2018-12-04T03:15:15.351Z,0.00
2018-12-04T03:16:15.343Z,0.00
2018-12-04T03:17:15.333Z,0.00
2018-12-04T03:18:15.326Z,0.00
2018-12-04T03:19:15.313Z,0.00
2018-12-04T03:20:15.306Z,0.00
2018-12-04T03:21:15.304Z,0.00
2018-12-04T03:22:15.295Z,0.00
2018-12-04T03:23:15.287Z,0.00
2018-12-04T03:24:15.279Z,0.00
2018-12-04T03:25:15.267Z,0.00
2018-12-04T03:26:15.257Z,0.00
2018-12-04T03:27:15.253Z,0.00
2018-12-04T03:28:15.245Z,0.00
2018-12-04T03:29:15.231Z,0.00
2018-12-04T03:30:15.226Z,0.00
2018-12-04T03:31:15.217Z,0.00
2018-12-04T03:32:15.208Z,0.00
2018-12-04T03:33:15.209Z,0.00
2018-12-04T03:34:15.197Z,0.00
2018-12-04T03:35:15.187Z,0.00
2018-12-04T03:36:15.180Z,0.00
2018-12-04T03:37:15.169Z,0.00
2018-12-04T03:38:15.159Z,0.00
2018-12-04T03:39:15.150Z,0.00
2018-12-04T03:40:15.147Z,0.00
2018-12-04T03:41:15.139Z,0.00
2018-12-04T03:42:15.131Z,0.00
2018-12-04T03:43:15.119Z,0.00
2018-12-04T03:44:15.110Z,0.00
2018-12-04T03:45:15.105Z,0.00
2018-12-04T03:46:15.098Z,0.00
2018-12-04T03:47:15.087Z,0.00
2018-12-04T03:48:15.079Z,0.00
2018-12-04T03:49:15.072Z,0.00
2018-12-04T03:50:15.063Z,0.00
2018-12-04T03:51:15.050Z,0.00
2018-12-04T03:52:15.043Z,0.00
2018-12-04T03:53:15.044Z,0.00
2018-12-04T03:54:15.031Z,0.00
2018-12-04T03:55:15.021Z,0.00
2018-12-04T03:56:15.013Z,0.00
2018-12-04T03:57:15.008Z,0.00
2018-12-04T03:58:14.993Z,0.00
2018-12-04T03:59:14.989Z,0.00
2018-12-04T04:00:14.979Z,0.00
2018-12-04T04:01:14.967Z,0.00
2018-12-04T04:02:14.959Z,0.00
2018-12-04T04:03:14.951Z,0.00
2018-12-04T04:04:14.942Z,0.00
2018-12-04T04:05:14.941Z,0.00
2018-12-04T04:06:14.931Z,0.00
2018-12-04T04:07:14.928Z,0.00
2018-12-04T04:08:14.915Z,0.00
2018-12-04T04:09:14.901Z,0.00
2018-12-04T04:10:14.893Z,0.00
2018-12-04T04:11:14.883Z,0.00
2018-12-04T04:12:14.879Z,0.00
2018-12-04T04:13:14.871Z,0.00
2018-12-04T04:14:14.863Z,0.00
2018-12-04T04:15:14.850Z,0.00
2018-12-04T04:16:14.842Z,0.00
2018-12-04T04:17:14.839Z,0.00
2018-12-04T04:18:14.833Z,0.00
2018-12-04T04:19:14.822Z,0.00
2018-12-04T04:20:14.815Z,0.00
2018-12-04T04:21:14.800Z,0.00
2018-12-04T04:22:14.792Z,0.00
2018-12-04T04:23:14.784Z,0.00
2018-12-04T04:24:14.775Z,0.00
2018-12-04T04:25:14.772Z,0.00
2018-12-04T04:26:14.791Z,0.00
2018-12-04T04:27:14.762Z,0.00
2018-12-04T04:28:14.750Z,0.00
2018-12-04T04:29:14.739Z,0.00
2018-12-04T04:30:14.726Z,0.00
2018-12-04T04:31:14.726Z,0.00
2018-12-04T04:32:14.713Z,0.00
2018-12-04T04:33:14.701Z,0.00
2018-12-04T04:34:14.692Z,0.00
2018-12-04T04:35:14.684Z,0.00
2018-12-04T04:36:14.675Z,0.00
2018-12-04T04:37:14.673Z,0.00
2018-12-04T04:38:14.664Z,0.00
2018-12-04T04:39:14.656Z,0.00
2018-12-04T04:40:14.650Z,0.00
2018-12-04T04:41:14.635Z,0.00
2018-12-04T04:42:14.625Z,0.00
2018-12-04T04:43:14.616Z,0.00
2018-12-04T04:44:14.608Z,0.00
2018-12-04T04:45:14.606Z,0.00
2018-12-04T04:46:14.745Z,0.00
2018-12-04T04:47:14.585Z,0.00
2018-12-04T04:48:14.575Z,0.00
2018-12-04T04:49:14.572Z,0.00
2018-12-04T04:50:14.564Z,0.00
2018-12-04T04:51:14.554Z,0.00
2018-12-04T04:52:14.546Z,0.00
2018-12-04T04:53:14.539Z,0.00
2018-12-04T04:54:14.524Z,0.00
2018-12-04T04:55:14.518Z,0.00
2018-12-04T04:56:14.509Z,0.00
2018-12-04T04:57:14.503Z,0.00
2018-12-04T04:58:14.494Z,0.00
2018-12-04T04:59:14.528Z,0.00
2018-12-04T05:00:14.481Z,0.00
2018-12-04T05:01:14.466Z,0.00
2018-12-04T05:02:14.456Z,0.00
2018-12-04T05:03:14.453Z,0.00
2018-12-04T05:04:14.444Z,0.00
2018-12-04T05:05:14.431Z,0.00
2018-12-04T05:06:14.423Z,0.00
2018-12-04T05:07:14.421Z,0.00
2018-12-04T05:08:14.407Z,0.00
2018-12-04T05:09:14.401Z,0.00
2018-12-04T05:10:14.396Z,0.00
2018-12-04T05:11:14.383Z,0.00
2018-12-04T05:12:14.378Z,0.00
2018-12-04T05:13:14.366Z,0.00
2018-12-04T05:14:14.354Z,0.00
2018-12-04T05:15:14.344Z,0.00
2018-12-04T05:16:14.336Z,0.00
2018-12-04T05:17:14.333Z,0.00
2018-12-04T05:18:14.329Z,0.00
2018-12-04T05:19:14.310Z,0.00
2018-12-04T05:20:14.303Z,0.00
2018-12-04T05:21:14.298Z,0.00
2018-12-04T05:22:14.291Z,0.00
2018-12-04T05:23:14.284Z,0.00
2018-12-04T05:24:14.271Z,0.00
2018-12-04T05:25:14.259Z,0.00
2018-12-04T05:26:14.250Z,0.00
2018-12-04T05:27:14.241Z,0.00
2018-12-04T05:28:14.232Z,0.00
2018-12-04T05:29:14.228Z,0.00
2018-12-04T05:30:14.241Z,0.00
2018-12-04T05:31:14.212Z,0.00
2018-12-04T05:32:14.204Z,0.00
2018-12-04T05:33:14.192Z,0.00
2018-12-04T05:34:14.182Z,0.00
2018-12-04T05:35:14.182Z,0.00
2018-12-04T05:36:14.169Z,0.00
2018-12-04T05:37:14.155Z,0.00
2018-12-04T05:38:14.147Z,0.00
2018-12-04T05:39:14.137Z,0.00
2018-12-04T05:40:14.129Z,0.00
2018-12-04T05:41:14.129Z,0.00
2018-12-04T05:42:14.116Z,0.00
2018-12-04T05:43:14.108Z,0.00
2018-12-04T05:44:14.099Z,0.00
2018-12-04T05:45:14.086Z,0.00
2018-12-04T05:46:14.078Z,0.00
2018-12-04T05:47:14.069Z,0.00
2018-12-04T05:48:14.061Z,0.00
2018-12-04T05:49:14.057Z,0.00
2018-12-04T05:50:14.049Z,0.00
2018-12-04T05:51:14.035Z,0.00
2018-12-04T05:52:14.026Z,0.00
2018-12-04T05:53:14.023Z,0.00
2018-12-04T05:54:14.023Z,0.00
2018-12-04T05:55:14.005Z,0.00
2018-12-04T05:56:13.995Z,0.00
2018-12-04T05:57:13.983Z,0.00
2018-12-04T05:58:13.973Z,0.00
2018-12-04T05:59:13.971Z,0.00
2018-12-04T06:00:13.958Z,0.00
2018-12-04T06:01:13.954Z,0.00
2018-12-04T06:02:13.945Z,0.00
2018-12-04T06:03:13.934Z,0.00
2018-12-04T06:04:13.926Z,0.00
2018-12-04T06:05:13.916Z,0.00
2018-12-04T06:06:13.906Z,0.00
2018-12-04T06:07:13.899Z,0.00
2018-12-04T06:08:13.891Z,0.00
2018-12-04T06:09:13.880Z,0.00
2018-12-04T06:10:13.870Z,0.00
2018-12-04T06:11:13.861Z,0.00
2018-12-04T06:12:13.852Z,0.00
2018-12-04T06:13:13.849Z,0.00
2018-12-04T06:14:13.850Z,0.00
2018-12-04T06:15:13.831Z,0.00
2018-12-04T06:16:13.823Z,0.00
2018-12-04T06:17:13.810Z,0.00
2018-12-04T06:18:13.801Z,0.00
2018-12-04T06:19:13.792Z,0.00
2018-12-04T06:20:13.783Z,0.00
2018-12-04T06:21:13.779Z,0.00
2018-12-04T06:22:13.772Z,0.00
2018-12-04T06:23:13.757Z,0.00
2018-12-04T06:24:13.750Z,0.00
2018-12-04T06:25:13.756Z,0.00
2018-12-04T06:26:13.741Z,0.00
2018-12-04T06:27:13.728Z,0.00
2018-12-04T06:28:13.719Z,0.00
2018-12-04T06:29:13.705Z,0.00
2018-12-04T06:30:13.698Z,0.00
2018-12-04T06:31:13.688Z,0.00
2018-12-04T06:32:13.679Z,0.00
2018-12-04T06:33:13.676Z,0.00
2018-12-04T06:34:13.666Z,0.00
2018-12-04T06:35:13.659Z,0.00
2018-12-04T06:36:13.648Z,0.00
2018-12-04T06:37:13.635Z,0.00
2018-12-04T06:38:13.628Z,0.00
2018-12-04T06:39:13.626Z,0.00
2018-12-04T06:40:13.617Z,0.00
2018-12-04T06:41:13.601Z,0.00
2018-12-04T06:42:13.591Z,0.00
2018-12-04T06:43:13.582Z,0.00
2018-12-04T06:44:13.576Z,0.00
2018-12-04T06:45:13.572Z,4.00
2018-12-04T06:46:13.563Z,0.00
2018-12-04T06:47:13.556Z,4.00
2018-12-04T06:48:13.545Z,4.00
2018-12-04T06:49:13.530Z,4.00
2018-12-04T06:50:13.522Z,4.00
2018-12-04T06:51:13.517Z,4.00
2018-12-04T06:52:13.503Z,4.00
2018-12-04T06:53:13.499Z,8.00
2018-12-04T06:54:13.490Z,8.00
2018-12-04T06:55:13.478Z,8.00
2018-12-04T06:56:13.471Z,16.00
2018-12-04T06:57:13.464Z,16.00
2018-12-04T06:58:13.455Z,20.00
2018-12-04T06:59:13.454Z,20.00
2018-12-04T07:00:13.448Z,24.00
2018-12-04T07:01:13.425Z,28.00
2018-12-04T07:02:13.422Z,36.00
2018-12-04T07:03:13.406Z,40.00
2018-12-04T07:04:13.403Z,48.00
2018-12-04T07:05:13.393Z,60.00
2018-12-04T07:06:13.384Z,64.00
2018-12-04T07:07:13.375Z,68.00
2018-12-04T07:08:13.371Z,76.00
2018-12-04T07:09:13.358Z,80.00
2018-12-04T07:10:13.348Z,80.00
2018-12-04T07:11:13.342Z,88.00
2018-12-04T07:12:13.330Z,96.00
2018-12-04T07:13:13.323Z,108.00
2018-12-04T07:14:13.310Z,120.00
2018-12-04T07:15:13.301Z,132.00
2018-12-04T07:16:13.290Z,148.00
2018-12-04T07:17:13.286Z,160.00
2018-12-04T07:18:13.283Z,176.00
2018-12-04T07:19:13.269Z,188.00
2018-12-04T07:20:13.259Z,196.00
2018-12-04T07:21:13.245Z,200.00
2018-12-04T07:22:13.237Z,208.00
2018-12-04T07:23:13.228Z,224.00
2018-12-04T07:24:13.219Z,244.00
2018-12-04T07:25:13.215Z,264.00
2018-12-04T07:26:13.208Z,288.00
2018-12-04T07:27:13.192Z,304.00
2018-12-04T07:28:13.184Z,312.00
2018-12-04T07:29:13.182Z,304.00
2018-12-04T07:30:13.176Z,304.00
2018-12-04T07:31:13.161Z,320.00
2018-12-04T07:32:13.152Z,352.00
2018-12-04T07:33:13.140Z,396.00
2018-12-04T07:34:13.130Z,424.00
2018-12-04T07:35:13.121Z,444.00
2018-12-04T07:36:13.114Z,456.00
2018-12-04T07:37:13.108Z,476.00
2018-12-04T07:38:13.111Z,492.00
2018-12-04T07:39:13.141Z,496.00
2018-12-04T07:40:13.083Z,500.00
2018-12-04T07:41:13.076Z,500.00
2018-12-04T07:42:13.060Z,500.00
2018-12-04T07:43:13.057Z,516.00
2018-12-04T07:44:13.047Z,528.00
2018-12-04T07:45:13.034Z,548.00
2018-12-04T07:46:13.025Z,568.00
2018-12-04T07:47:13.016Z,624.00
2018-12-04T07:48:13.009Z,644.00
2018-12-04T07:49:13.002Z,692.00
2018-12-04T07:50:12.997Z,716.00
2018-12-04T07:51:12.985Z,676.00
2018-12-04T07:52:12.976Z,628.00
2018-12-04T07:53:12.966Z,604.00
2018-12-04T07:54:12.954Z,616.00
2018-12-04T07:55:12.945Z,640.00
2018-12-04T07:56:12.937Z,660.00
2018-12-04T07:57:12.934Z,696.00
2018-12-04T07:58:12.925Z,712.00
2018-12-04T07:59:12.911Z,744.00
2018-12-04T08:00:12.906Z,780.00
2018-12-04T08:01:12.906Z,836.00
2018-12-04T08:02:12.890Z,924.00
2018-12-04T08:03:12.881Z,1024.00
2018-12-04T08:04:12.875Z,1148.00
2018-12-04T08:05:12.859Z,1248.00
2018-12-04T08:06:12.850Z,1292.00
2018-12-04T08:07:12.843Z,1384.00
2018-12-04T08:08:12.833Z,1444.00
2018-12-04T08:09:12.830Z,1484.00
2018-12-04T08:10:12.821Z,1596.00
2018-12-04T08:11:12.811Z,1756.00
2018-12-04T08:12:12.803Z,1776.00
2018-12-04T08:13:12.790Z,1756.00
2018-12-04T08:14:12.782Z,1792.00
2018-12-04T08:15:12.778Z,1892.00
2018-12-04T08:16:12.768Z,1920.00
2018-12-04T08:17:12.757Z,1968.00
2018-12-04T08:18:12.749Z,2056.00
2018-12-04T08:19:12.738Z,2140.00
2018-12-04T08:20:12.731Z,2280.00
2018-12-04T08:21:12.728Z,2456.00
2018-12-04T08:22:12.729Z,2652.00
2018-12-04T08:23:12.711Z,2684.00
2018-12-04T08:24:12.710Z,2640.00
2018-12-04T08:25:12.690Z,2696.00
2018-12-04T08:26:12.680Z,2792.00
2018-12-04T08:27:12.672Z,2876.00
2018-12-04T08:28:12.663Z,2932.00
2018-12-04T08:29:12.660Z,3100.00
2018-12-04T08:30:12.651Z,3228.00
2018-12-04T08:31:12.638Z,3272.00
2018-12-04T08:32:12.630Z,3320.00
2018-12-04T08:33:12.626Z,2868.00
2018-12-04T08:34:12.619Z,2916.00
2018-12-04T08:35:12.610Z,2948.00
2018-12-04T08:36:12.605Z,2916.00
2018-12-04T08:37:12.589Z,2968.00
2018-12-04T08:38:12.582Z,3080.00
2018-12-04T08:39:13.220Z,3112.00
2018-12-04T08:40:12.566Z,2996.00
2018-12-04T08:41:12.566Z,2792.00
2018-12-04T08:42:12.556Z,2584.00
2018-12-04T08:43:12.545Z,2508.00
2018-12-04T08:44:12.538Z,2460.00
2018-12-04T08:45:12.527Z,2420.00
2018-12-04T08:46:12.519Z,2324.00
2018-12-04T08:47:12.514Z,2252.00
2018-12-04T08:48:12.507Z,2324.00
2018-12-04T08:49:12.495Z,2448.00
2018-12-04T08:50:12.487Z,2524.00
2018-12-04T08:51:12.479Z,2620.00
2018-12-04T08:52:12.471Z,2608.00
2018-12-04T08:53:12.470Z,2648.00
2018-12-04T08:54:12.460Z,2712.00
2018-12-04T08:55:12.454Z,2804.00
2018-12-04T08:56:12.446Z,2896.00
2018-12-04T08:57:12.433Z,3152.00
2018-12-04T08:58:12.426Z,3648.00
2018-12-04T08:59:12.416Z,4592.00
2018-12-04T09:00:12.409Z,5444.00
2018-12-04T09:01:12.406Z,5812.00
2018-12-04T09:02:12.398Z,6280.00
2018-12-04T09:03:12.387Z,6492.00
2018-12-04T09:04:12.383Z,5720.00
2018-12-04T09:05:12.456Z,4632.00
2018-12-04T09:06:12.376Z,4028.00
2018-12-04T09:07:12.361Z,3604.00
2018-12-04T09:08:12.386Z,3112.00
2018-12-04T09:09:12.342Z,2844.00
2018-12-04T09:10:12.335Z,2572.00
2018-12-04T09:11:12.327Z,2272.00
2018-12-04T09:12:12.321Z,2100.00
2018-12-04T09:13:12.318Z,1984.00
2018-12-04T09:14:12.310Z,1956.00
2018-12-04T09:15:12.304Z,2012.00
2018-12-04T09:16:12.297Z,2028.00
2018-12-04T09:17:12.285Z,1960.00
2018-12-04T09:18:12.283Z,1968.00
2018-12-04T09:19:12.331Z,2028.00
2018-12-04T09:20:12.311Z,2008.00
2018-12-04T09:21:12.267Z,2116.00
2018-12-04T09:22:12.324Z,2260.00
2018-12-04T09:23:12.246Z,2480.00
2018-12-04T09:24:12.304Z,2892.00
2018-12-04T09:25:12.254Z,10024.00
2018-12-04T09:26:12.225Z,10288.00
2018-12-04T09:27:12.301Z,9992.00
2018-12-04T09:28:12.313Z,8628.00
2018-12-04T09:29:12.242Z,10180.00
2018-12-04T09:30:12.217Z,10280.00
2018-12-04T09:31:12.184Z,10192.00
2018-12-04T09:32:12.180Z,10460.00
2018-12-04T09:33:12.178Z,10440.00
2018-12-04T09:34:12.172Z,10708.00
2018-12-04T09:35:12.161Z,10612.00
2018-12-04T09:36:12.156Z,10864.00
2018-12-04T09:37:12.157Z,11000.00
2018-12-04T09:38:12.153Z,11172.00
2018-12-04T09:39:12.147Z,11188.00
2018-12-04T09:40:12.148Z,11432.00
2018-12-04T09:41:12.136Z,11420.00
2018-12-04T09:42:12.132Z,11600.00
2018-12-04T09:43:12.130Z,11552.00
2018-12-04T09:44:12.127Z,11608.00
2018-12-04T09:45:12.131Z,11568.00
2018-12-04T09:46:12.129Z,11672.00
2018-12-04T09:47:12.127Z,11784.00
2018-12-04T09:48:12.124Z,11808.00
2018-12-04T09:49:12.118Z,11816.00
2018-12-04T09:50:12.117Z,11868.00
2018-12-04T09:51:12.123Z,11972.00
2018-12-04T09:52:12.121Z,11976.00
2018-12-04T09:53:12.115Z,11748.00
2018-12-04T09:54:12.116Z,11520.00
2018-12-04T09:55:12.114Z,11576.00
2018-12-04T09:56:12.114Z,11760.00
2018-12-04T09:57:12.120Z,11764.00
2018-12-04T09:58:12.121Z,11652.00
2018-12-04T09:59:12.159Z,11644.00
2018-12-04T10:00:12.121Z,11248.00
2018-12-04T10:01:12.118Z,11052.00
2018-12-04T10:02:12.120Z,10560.00
2018-12-04T10:03:12.119Z,11968.00
2018-12-04T10:04:12.126Z,12264.00
2018-12-04T10:05:12.130Z,12128.00
2018-12-04T10:06:12.129Z,12436.00
2018-12-04T10:07:12.125Z,12324.00
2018-12-04T10:08:12.126Z,12028.00
2018-12-04T10:09:12.134Z,12640.00
2018-12-04T10:10:12.151Z,11972.00
2018-12-04T10:11:12.135Z,10876.00
2018-12-04T10:12:12.185Z,11680.00
2018-12-04T10:13:12.138Z,11960.00
2018-12-04T10:14:12.139Z,12552.00
2018-12-04T10:15:12.139Z,10824.00
2018-12-04T10:16:12.140Z,11228.00
2018-12-04T10:17:12.148Z,11212.00
2018-12-04T10:18:12.149Z,10860.00
2018-12-04T10:19:12.161Z,12328.00
2018-12-04T10:20:12.153Z,13080.00
2018-12-04T10:21:12.150Z,12976.00
2018-12-04T10:22:12.152Z,13472.00
2018-12-04T10:23:12.160Z,14176.00
2018-12-04T10:24:12.161Z,13628.00
2018-12-04T10:25:12.159Z,7580.00
2018-12-04T10:26:12.203Z,14208.00
2018-12-04T10:27:12.168Z,13852.00
2018-12-04T10:28:12.165Z,13572.00
2018-12-04T10:29:12.172Z,12668.00
2018-12-04T10:30:12.177Z,7756.00
2018-12-04T10:31:12.180Z,12816.00
2018-12-04T10:32:12.179Z,12244.00
2018-12-04T10:33:12.177Z,10744.00
2018-12-04T10:34:12.180Z,12856.00
2018-12-04T10:35:12.181Z,14304.00
2018-12-04T10:36:12.183Z,16128.00
2018-12-04T10:37:12.190Z,16768.00
2018-12-04T10:38:12.192Z,16448.00
2018-12-04T10:39:12.190Z,15264.00
2018-12-04T10:40:12.192Z,14784.00
2018-12-04T10:41:12.199Z,15104.00
2018-12-04T10:42:12.201Z,14944.00
2018-12-04T10:43:12.204Z,14624.00
2018-12-04T10:44:12.208Z,10188.00
2018-12-04T10:45:12.205Z,6576.00
2018-12-04T10:46:12.210Z,5496.00
2018-12-04T10:47:12.209Z,4968.00
2018-12-04T10:48:12.212Z,4792.00
2018-12-04T10:49:12.222Z,4488.00
2018-12-04T10:50:12.223Z,4360.00
2018-12-04T10:51:12.223Z,3804.00
2018-12-04T10:52:12.224Z,3556.00
2018-12-04T10:53:12.222Z,3884.00
2018-12-04T10:54:12.223Z,4768.00
2018-12-04T10:55:12.240Z,5704.00
2018-12-04T10:56:12.231Z,10080.00
2018-12-04T10:57:12.226Z,8488.00
2018-12-04T10:58:12.226Z,6508.00
2018-12-04T10:59:12.225Z,14336.00
2018-12-04T11:00:12.227Z,6532.00
2018-12-04T11:01:12.231Z,5972.00
2018-12-04T11:02:12.231Z,5792.00
2018-12-04T11:03:12.230Z,12712.00
2018-12-04T11:04:12.231Z,11360.00
2018-12-04T11:05:12.224Z,5196.00
2018-12-04T11:06:12.224Z,5096.00
2018-12-04T11:07:12.222Z,4388.00
2018-12-04T11:08:12.221Z,3508.00
2018-12-04T11:09:12.225Z,3068.00
2018-12-04T11:10:12.224Z,4672.00
2018-12-04T11:11:12.218Z,7912.00
2018-12-04T11:12:12.499Z,6144.00
2018-12-04T11:13:12.220Z,6148.00
2018-12-04T11:14:12.221Z,9132.00
2018-12-04T11:15:12.219Z,5824.00
2018-12-04T11:16:12.219Z,9440.00
2018-12-04T11:17:12.211Z,12440.00
2018-12-04T11:18:12.209Z,8688.00
2018-12-04T11:19:12.207Z,7008.00
2018-12-04T11:20:12.209Z,6668.00
2018-12-04T11:21:12.209Z,5356.00
2018-12-04T11:22:12.211Z,6908.00
2018-12-04T11:23:12.207Z,5136.00
2018-12-04T11:24:12.202Z,4016.00
2018-12-04T11:25:12.196Z,4660.00
2018-12-04T11:26:12.195Z,5752.00
2018-12-04T11:27:12.196Z,6676.00
2018-12-04T11:28:12.195Z,6732.00
2018-12-04T11:29:12.188Z,6332.00
2018-12-04T11:30:12.186Z,6084.00
2018-12-04T11:31:12.183Z,5928.00
2018-12-04T11:32:12.189Z,5820.00
2018-12-04T11:33:12.184Z,5220.00
2018-12-04T11:34:12.180Z,4520.00
2018-12-04T11:35:12.178Z,4184.00
2018-12-04T11:36:12.178Z,4512.00
2018-12-04T11:37:12.167Z,5048.00
2018-12-04T11:38:12.164Z,5276.00
2018-12-04T11:39:12.165Z,5532.00
2018-12-04T11:40:12.159Z,6280.00
2018-12-04T11:41:12.159Z,7608.00
2018-12-04T11:42:12.157Z,7924.00
2018-12-04T11:43:12.149Z,7740.00
2018-12-04T11:44:12.144Z,8020.00
2018-12-04T11:45:12.145Z,8824.00
2018-12-04T11:46:12.143Z,9660.00
2018-12-04T11:47:12.139Z,9524.00
2018-12-04T11:48:12.136Z,9144.00
2018-12-04T11:49:12.126Z,9308.00
2018-12-04T11:50:12.124Z,7800.00
2018-12-04T11:51:12.121Z,6328.00
2018-12-04T11:52:12.116Z,5356.00
2018-12-04T11:53:12.117Z,3728.00
2018-12-04T11:54:12.113Z,3220.00
2018-12-04T11:55:12.108Z,3816.00
2018-12-04T11:56:12.105Z,3904.00
2018-12-04T11:57:12.098Z,3736.00
2018-12-04T11:58:12.094Z,3816.00
2018-12-04T11:59:12.097Z,3796.00
2018-12-04T12:00:12.091Z,3596.00
2018-12-04T12:01:12.082Z,3380.00
2018-12-04T12:02:12.080Z,3524.00
2018-12-04T12:03:12.075Z,4072.00
2018-12-04T12:04:12.071Z,4408.00
2018-12-04T12:05:12.072Z,4672.00
2018-12-04T12:06:12.067Z,4728.00
2018-12-04T12:07:12.062Z,3836.00
2018-12-04T12:08:12.059Z,4348.00
2018-12-04T12:09:12.050Z,3672.00
2018-12-04T12:10:12.046Z,4316.00
2018-12-04T12:11:12.041Z,4572.00
2018-12-04T12:12:12.038Z,4584.00
2018-12-04T12:13:12.039Z,4004.00
2018-12-04T12:14:12.033Z,3568.00
2018-12-04T12:15:17.797Z,3640.00
2018-12-04T12:16:12.019Z,4120.00
2018-12-04T12:17:12.020Z,3920.00
2018-12-04T12:18:12.014Z,4612.00
2018-12-04T12:19:12.018Z,5328.00
2018-12-04T12:20:12.006Z,5420.00
2018-12-04T12:21:11.995Z,5488.00
2018-12-04T12:22:11.991Z,5324.00
2018-12-04T12:23:11.985Z,5160.00
2018-12-04T12:24:11.982Z,6064.00
2018-12-04T12:25:11.982Z,5400.00
2018-12-04T12:26:11.975Z,5660.00
2018-12-04T12:27:11.973Z,5792.00
2018-12-04T12:28:11.969Z,6236.00
2018-12-04T12:29:11.956Z,7520.00
2018-12-04T12:30:11.952Z,8468.00
2018-12-04T12:31:11.952Z,7544.00
2018-12-04T12:32:11.946Z,7468.00
2018-12-04T12:33:11.937Z,6520.00
2018-12-04T12:34:11.930Z,6024.00
2018-12-04T12:35:11.970Z,5580.00
2018-12-04T12:36:11.921Z,4488.00
2018-12-04T12:37:11.920Z,3828.00
2018-12-04T12:38:11.916Z,3484.00
2018-12-04T12:39:11.912Z,3688.00
2018-12-04T12:40:11.906Z,3996.00
2018-12-04T12:41:11.899Z,4196.00
2018-12-04T12:42:11.892Z,4340.00
2018-12-04T12:43:11.886Z,4508.00